Time;durP1;ratioP1;P1;durP2;ratioP2;P2;SDS_P1;SDS_P2;PMS_P1;PMS_P2;Temp;Humidity;BMP_temperature;BMP_pressure;BME280_temperature;BME280_humidity;BME280_pressure;Samples;Min_cycle;Max_cycle;Signal;HPM_P1;HPM_P2
2022/07/17 00:00:12;;;;;;;18.33;1.60;;;;;;;22.65;60.74;100369.25;7310819;19;128994;-41
2022/07/17 00:02:37;;;;;;;20.85;1.83;;;;;;;22.69;60.70;100373.28;7312680;19;128910;-40
2022/07/17 00:05:03;;;;;;;11.65;1.23;;;;;;;22.67;60.08;100372.56;7310952;19;129128;-40
2022/07/17 00:07:29;;;;;;;16.80;1.50;;;;;;;22.68;60.19;100374.22;7311814;19;130902;-40
2022/07/17 00:09:54;;;;;;;16.42;1.55;;;;;;;22.68;60.50;100371.59;7312811;19;129153;-41
2022/07/17 00:12:19;;;;;;;17.25;1.48;;;;;;;22.68;60.14;100371.59;7312491;19;129302;-38
2022/07/17 00:14:45;;;;;;;17.42;1.58;;;;;;;22.67;60.63;100370.78;7311293;19;130098;-38
2022/07/17 00:17:10;;;;;;;5.13;0.73;;;;;;;22.67;60.80;100375.19;7311322;19;130634;-38
2022/07/17 00:19:35;;;;;;;17.53;1.63;;;;;;;22.68;60.81;100376.84;7316425;19;128834;-37
2022/07/17 00:22:01;;;;;;;16.50;1.50;;;;;;;22.67;60.76;100375.19;7320217;19;129432;-38
2022/07/17 00:24:27;;;;;;;2.83;0.65;;;;;;;22.67;60.36;100373.41;7318310;19;129019;-38
2022/07/17 00:26:52;;;;;;;19.80;1.60;;;;;;;22.68;60.93;100376.84;7318690;19;131701;-39
2022/07/17 00:29:19;;;;;;;7.53;0.88;;;;;;;22.68;60.86;100382.09;7319293;19;129034;-38
2022/07/17 00:31:44;;;;;;;;;;;;;;;22.71;62.82;100382.66;7319178;19;128584;-38
2022/07/17 00:34:10;;;;;;;17.92;1.58;;;;;;;22.60;60.55;100363.53;7318611;19;130231;-37
2022/07/17 00:36:36;;;;;;;27.45;2.45;;;;;;;22.67;60.12;100375.19;7318356;19;129095;-38
2022/07/17 00:39:01;;;;;;;16.60;1.50;;;;;;;22.66;60.55;100382.22;7317810;19;128825;-38
2022/07/17 00:41:26;;;;;;;15.93;1.40;;;;;;;22.65;60.30;100379.72;7319197;19;129212;-37
2022/07/17 00:43:52;;;;;;;12.43;1.33;;;;;;;22.62;60.36;100385.22;7317955;19;129250;-39
2022/07/17 00:46:17;;;;;;;17.20;1.50;;;;;;;;;;7318321;19;129453;-38
2022/07/17 00:48:43;;;;;;;15.20;1.33;;;;;;;22.66;60.52;100378.78;7318534;19;128740;-39
2022/07/17 00:51:09;;;;;;;14.88;1.40;;;;;;;22.67;60.13;100381.28;7318952;19;128873;-37
2022/07/17 00:53:36;;;;;;;17.80;1.50;;;;;;;22.66;60.37;100391.88;7318144;19;130397;-38
2022/07/17 00:56:04;;;;;;;20.55;1.90;;;;;;;22.66;60.17;100387.47;7315312;19;130215;-38
2022/07/17 00:58:33;;;;;;;22.42;1.95;;;;;;;22.67;60.51;100386.50;7317743;19;128880;-38
2022/07/17 01:00:58;;;;;;;17.58;1.63;;;;;;;22.66;60.86;100395.31;7318004;19;128835;-38
2022/07/17 01:03:25;;;;;;;20.92;1.73;;;;;;;22.66;60.74;100395.31;7317999;19;128813;-38
2022/07/17 01:05:51;;;;;;;15.43;1.38;;;;;;;22.66;60.70;100395.31;7316404;19;129762;-39
2022/07/17 01:08:17;;;;;;;2.30;0.50;;;;;;;22.67;60.02;100396.16;7317439;19;128687;-38
2022/07/17 01:10:42;;;;;;;16.23;1.40;;;;;;;22.67;60.68;100391.75;7318091;19;129297;-39
2022/07/17 01:13:08;;;;;;;17.40;1.55;;;;;;;22.67;59.91;100396.16;7317218;19;128945;-39
2022/07/17 01:15:39;;;;;;;19.17;1.70;;;;;;;22.68;61.33;100397.81;7315831;19;129945;-38
2022/07/17 01:18:11;;;;;;;11.07;0.95;;;;;;;22.66;62.15;100399.75;7317274;19;128950;-38
2022/07/17 01:20:38;;;;;;;15.68;1.33;;;;;;;22.58;60.95;100386.41;7315398;19;129205;-38
2022/07/17 01:23:04;;;;;;;16.15;1.58;;;;;;;22.68;60.50;100403.91;7317851;19;130242;-38
2022/07/17 01:25:31;;;;;;;17.70;1.53;;;;;;;22.68;60.09;100403.06;7315575;19;129282;-38
2022/07/17 01:27:57;;;;;;;21.23;1.87;;;;;;;22.69;60.02;100409.97;7317076;19;129109;-37
2022/07/17 01:30:23;;;;;;;17.10;1.63;;;;;;;22.69;60.05;100404.72;7317057;19;129097;-38
2022/07/17 01:32:48;;;;;;;20.63;1.73;;;;;;;22.68;60.29;100408.28;7317037;19;130098;-38
2022/07/17 01:35:15;;;;;;;23.30;2.13;;;;;;;22.68;60.15;100403.06;7315570;19;129800;-37
2022/07/17 01:37:41;;;;;;;;;;;;;;;22.71;63.26;100402.81;7317458;19;129264;-37
2022/07/17 01:40:08;;;;;;;17.05;1.60;;;;;;;22.69;60.21;100404.72;7315617;19;129284;-39
2022/07/17 01:42:34;;;;;;;19.42;1.80;;;;;;;22.67;60.34;100402.25;7317242;19;130313;-39
2022/07/17 01:44:59;;;;;;;21.67;1.88;;;;;;;22.66;60.38;100397.13;7315671;19;130418;-42
2022/07/17 01:47:24;;;;;;;15.00;1.40;;;;;;;22.58;60.55;100394.28;7316650;19;128781;-42
2022/07/17 01:49:53;;;;;;;16.85;1.60;;;;;;;22.68;60.82;100408.28;7316895;19;128881;-39
2022/07/17 01:52:19;;;;;;;18.50;1.70;;;;;;;22.67;60.36;100399.63;7316397;19;129625;-41
2022/07/17 01:54:44;;;;;;;18.10;1.90;;;;;;;22.67;60.44;100404.03;7314824;19;130234;-40
2022/07/17 01:57:11;;;;;;;6.88;0.80;;;;;;;22.66;60.68;100395.31;7316373;19;129298;-39
2022/07/17 01:59:37;;;;;;;;;;;;;;;22.69;62.74;100395.06;7316209;19;129247;-42
2022/07/17 02:02:04;;;;;;;18.98;1.60;;;;;;;22.61;60.23;100381.75;7316839;19;129370;-40
2022/07/17 02:04:29;;;;;;;;;;;;;;;22.63;62.72;100379.00;7316515;19;130372;-41
2022/07/17 02:06:55;;;;;;;15.52;1.45;;;;;;;22.67;60.62;100391.75;7316050;19;128943;-42
2022/07/17 02:09:22;;;;;;;10.07;0.93;;;;;;;22.59;60.28;100367.13;7316487;19;128924;-40
2022/07/17 02:11:47;;;;;;;18.10;1.65;;;;;;;22.67;60.53;100389.13;7315811;19;129057;-42
2022/07/17 02:14:13;;;;;;;14.93;1.35;;;;;;;22.65;60.14;100383.19;7315652;19;129257;-40
2022/07/17 02:16:38;;;;;;;39.85;3.75;;;;;;;22.66;60.74;100386.66;7315567;19;128691;-40
2022/07/17 02:19:04;;;;;;;23.77;2.15;;;;;;;22.65;60.81;100388.44;7315154;19;129036;-39
2022/07/17 02:21:29;;;;;;;14.80;1.35;;;;;;;22.57;60.40;100374.28;7316464;19;129781;-41
2022/07/17 02:23:55;;;;;;;6.10;0.85;;;;;;;22.67;60.22;100390.91;7315674;19;130364;-39
2022/07/17 02:26:20;;;;;;;19.42;1.85;;;;;;;22.66;60.19;100394.50;7315470;19;128926;-40
2022/07/17 02:28:46;;;;;;;16.02;1.45;;;;;;;22.67;60.48;100390.91;7314845;19;128936;-38
2022/07/17 02:31:11;;;;;;;17.02;1.42;;;;;;;22.66;61.06;100394.50;7316000;19;129385;-38
2022/07/17 02:33:37;;;;;;;19.25;1.73;;;;;;;22.67;60.63;100390.91;7315388;19;130389;-41
2022/07/17 02:36:02;;;;;;;16.88;1.38;;;;;;;22.59;60.75;100381.06;7313003;19;128950;-37
2022/07/17 02:38:28;;;;;;;15.50;1.45;;;;;;;22.66;60.74;100399.75;7314854;19;129262;-41
2022/07/17 02:40:53;;;;;;;19.13;1.90;;;;;;;22.66;60.45;100399.75;7311094;19;129686;-41
2022/07/17 02:43:19;;;;;;;16.75;1.52;;;;;;;22.67;60.08;100396.16;7315318;19;129234;-40
2022/07/17 02:45:44;;;;;;;5.50;0.95;;;;;;;22.66;60.67;100397.13;7313150;19;129541;-41
2022/07/17 02:48:09;;;;;;;17.83;1.48;;;;;;;22.67;60.87;100397.00;7314581;19;128706;-41
2022/07/17 02:50:35;;;;;;;17.13;1.55;;;;;;;22.67;60.39;100396.16;7315235;19;130961;-42
2022/07/17 02:53:01;;;;;;;15.30;1.33;;;;;;;22.66;60.87;100394.50;7315222;19;130500;-40
2022/07/17 02:55:27;;;;;;;19.08;1.77;;;;;;;22.67;60.13;100396.16;7312228;19;130498;-42
2022/07/17 02:57:52;;;;;;;21.45;1.92;;;;;;;22.66;60.64;100400.56;7315267;19;129205;-39
2022/07/17 03:00:18;;;;;;;16.27;1.60;;;;;;;22.68;60.62;100395.19;7313261;19;130273;-38
2022/07/17 03:02:44;;;;;;;11.97;1.37;;;;;;;22.68;60.68;100403.06;7314017;19;129380;-39
2022/07/17 03:05:11;;;;;;;17.83;1.60;;;;;;;22.66;60.41;100399.75;7312563;19;129343;-39
2022/07/17 03:07:36;;;;;;;15.73;1.40;;;;;;;22.66;60.74;100399.75;7314079;19;128789;-39
2022/07/17 03:10:02;;;;;;;19.98;2.08;;;;;;;22.67;60.48;100409.25;7314025;19;129106;-39
2022/07/17 03:12:28;;;;;;;16.13;1.40;;;;;;;22.66;59.98;100405.00;7314251;19;132075;-39
2022/07/17 03:14:53;;;;;;;17.80;1.63;;;;;;;22.68;60.46;100403.06;7312877;19;129035;-37
2022/07/17 03:17:18;;;;;;;15.20;1.48;;;;;;;22.67;60.55;100406.66;7314314;19;129210;-38
2022/07/17 03:19:44;;;;;;;18.10;1.55;;;;;;;22.67;60.54;100401.41;7311690;19;129047;-40
2022/07/17 03:22:09;;;;;;;10.30;1.17;;;;;;;22.67;60.12;100406.66;7314292;19;130319;-37
2022/07/17 03:24:35;;;;;;;19.40;1.75;;;;;;;22.67;60.68;100411.88;7312678;19;128652;-38
2022/07/17 03:27:00;;;;;;;15.95;1.45;;;;;;;22.66;60.04;100410.25;7313981;19;129327;-37
2022/07/17 03:29:25;;;;;;;1.75;0.50;;;;;;;22.67;60.59;100417.13;7313810;19;129039;-38
2022/07/17 03:31:51;;;;;;;17.40;1.50;;;;;;;22.66;60.75;100405.81;7313790;19;129134;-40
2022/07/17 03:34:16;;;;;;;16.30;1.40;;;;;;;22.66;60.70;100415.47;7313274;19;129430;-39
2022/07/17 03:36:42;;;;;;;14.63;1.90;;;;;;;22.67;60.75;100411.88;7312079;19;129116;-41
2022/07/17 03:39:08;;;;;;;20.65;1.92;;;;;;;22.67;61.00;100422.38;7312538;19;129234;-37
2022/07/17 03:41:34;;;;;;;17.40;1.50;;;;;;;22.67;60.17;100411.88;7313435;19;129265;-38
2022/07/17 03:43:59;;;;;;;20.10;1.80;;;;;;;22.65;60.30;100414.63;7312283;19;128967;-38
2022/07/17 03:46:25;;;;;;;17.00;1.42;;;;;;;22.57;60.20;100403.13;7313393;19;129070;-39
2022/07/17 03:48:50;;;;;;;17.83;1.48;;;;;;;22.66;60.16;100431.22;7312978;19;130277;-37
2022/07/17 03:51:16;;;;;;;15.82;1.33;;;;;;;22.66;60.17;100425.97;7312882;19;130644;-38
2022/07/17 03:53:41;;;;;;;19.48;1.70;;;;;;;22.66;60.25;100425.97;7316015;19;129391;-39
2022/07/17 03:56:07;;;;;;;20.30;1.87;;;;;;;22.66;60.61;100428.59;7317559;19;131240;-38
2022/07/17 03:58:33;;;;;;;17.37;1.47;;;;;;;22.67;60.17;100427.63;7320065;19;130190;-37
2022/07/17 04:00:59;;;;;;;13.50;1.17;;;;;;;22.66;60.06;100437.25;7316171;19;130432;-38
2022/07/17 04:03:24;;;;;;;15.68;1.35;;;;;;;22.67;60.50;100440.72;7320378;19;129270;-38
2022/07/17 04:05:50;;;;;;;14.65;1.38;;;;;;;22.66;60.36;100436.44;7317627;19;128770;-39
2022/07/17 04:08:15;;;;;;;18.92;1.70;;;;;;;22.66;60.74;100436.44;7319459;19;130005;-38
2022/07/17 04:10:41;;;;;;;8.80;0.93;;;;;;;22.66;60.69;100452.19;7319213;19;129518;-38
2022/07/17 04:13:07;;;;;;;16.27;1.50;;;;;;;22.65;60.48;100445.25;7317981;19;128919;-38
2022/07/17 04:18:17;;;;;;;17.00;1.50;;;;;;;22.66;60.75;100445.13;7318938;19;128930;-38
2022/07/17 04:20:42;;;;;;;17.77;1.63;;;;;;;22.68;61.13;100445.00;7317724;19;129136;-38
2022/07/17 04:23:08;;;;;;;16.40;1.40;;;;;;;22.65;60.85;100440.84;7318083;19;129097;-39
2022/07/17 04:25:33;;;;;;;17.67;1.63;;;;;;;22.65;60.26;100447.88;7317587;19;128955;-38
2022/07/17 04:27:59;;;;;;;16.65;1.60;;;;;;;22.66;60.98;100452.19;7319293;19;129279;-38
2022/07/17 04:30:24;;;;;;;21.55;1.80;;;;;;;22.65;60.51;100446.09;7318854;19;129316;-38
2022/07/17 04:32:50;;;;;;;20.38;1.85;;;;;;;22.66;60.33;100460.03;7319423;19;129455;-38
2022/07/17 04:35:15;;;;;;;4.95;0.68;;;;;;;22.63;60.14;100449.78;7317302;19;129151;-37
2022/07/17 04:37:40;;;;;;;17.40;1.47;;;;;;;22.65;60.79;100448.72;7318897;19;129427;-40
2022/07/17 04:40:07;;;;;;;16.27;1.63;;;;;;;22.65;60.50;100456.56;7317567;19;129089;-41
2022/07/17 04:42:32;;;;;;;17.00;1.75;;;;;;;22.65;60.58;100447.88;7318768;19;129309;-39
2022/07/17 04:44:57;;;;;;;8.18;1.00;;;;;;;22.66;60.84;100452.19;7316953;19;129107;-41
2022/07/17 04:47:23;;;;;;;16.33;1.33;;;;;;;22.66;60.48;100462.66;7317906;19;129157;-40
2022/07/17 04:49:48;;;;;;;17.17;1.48;;;;;;;22.66;60.61;100462.66;7319378;19;130413;-40
2022/07/17 04:52:14;;;;;;;4.50;0.73;;;;;;;22.65;60.70;100471.47;7318843;19;128715;-41
2022/07/17 04:54:39;;;;;;;19.23;1.75;;;;;;;22.64;60.47;100469.81;7316678;19;129649;-39
2022/07/17 04:57:04;;;;;;;27.30;2.40;;;;;;;22.66;60.28;100468.72;7317761;19;129562;-40
2022/07/17 04:59:30;;;;;;;16.35;1.48;;;;;;;22.64;60.52;100469.81;7317543;19;129187;-41
2022/07/17 05:01:55;;;;;;;19.80;1.77;;;;;;;22.65;60.62;100471.47;7318136;19;128636;-39
2022/07/17 05:04:20;;;;;;;23.55;2.20;;;;;;;22.66;60.20;100473.16;7315988;19;129092;-40
2022/07/17 05:06:46;;;;;;;19.95;1.85;;;;;;;22.66;60.62;100467.91;7317925;19;129436;-40
2022/07/17 05:09:11;;;;;;;8.48;1.00;;;;;;;22.66;60.22;100465.28;7318067;19;129130;-41
2022/07/17 05:11:37;;;;;;;17.02;1.40;;;;;;;22.66;60.29;100462.66;7318648;19;129371;-39
2022/07/17 05:14:03;;;;;;;13.40;1.23;;;;;;;22.66;60.81;100470.53;7317722;19;129114;-40
2022/07/17 05:16:28;;;;;;;18.52;1.45;;;;;;;22.67;60.17;100469.56;7317463;19;131535;-40
2022/07/17 05:18:54;;;;;;;2.45;0.45;;;;;;;22.66;59.98;100473.16;7317218;19;129508;-40
2022/07/17 05:21:19;;;;;;;19.65;1.65;;;;;;;22.66;60.86;100478.38;7314894;19;129221;-41
2022/07/17 05:23:44;;;;;;;14.50;1.27;;;;;;;22.57;60.59;100460.78;7317400;19;129406;-41
2022/07/17 05:26:10;;;;;;;14.27;1.25;;;;;;;22.65;60.64;100477.53;7313669;19;130999;-39
2022/07/17 05:28:36;;;;;;;16.48;1.45;;;;;;;22.66;60.52;100475.75;7316672;19;129113;-39
2022/07/17 05:31:01;;;;;;;16.70;1.40;;;;;;;22.65;60.62;100481.94;7318142;19;129279;-41
2022/07/17 05:33:27;;;;;;;15.43;1.38;;;;;;;22.65;60.53;100481.94;7317071;19;128895;-41
2022/07/17 05:35:52;;;;;;;20.48;1.80;;;;;;;22.64;60.10;100480.28;7313771;19;131216;-40
2022/07/17 05:38:18;;;;;;;16.90;1.45;;;;;;;22.65;60.65;100484.56;7316650;19;129689;-40
2022/07/17 05:40:43;;;;;;;16.63;1.40;;;;;;;22.63;60.19;100483.84;7315199;19;128870;-41
2022/07/17 05:43:08;;;;;;;15.60;1.30;;;;;;;22.66;60.37;100483.63;7317202;19;129112;-40
2022/07/17 05:45:34;;;;;;;20.70;1.80;;;;;;;22.65;60.42;100488.03;7314743;19;129075;-39
2022/07/17 05:47:59;;;;;;;8.70;0.98;;;;;;;22.65;60.64;100492.44;7316193;19;129709;-41
2022/07/17 05:50:25;;;;;;;20.58;1.80;;;;;;;22.63;60.27;100489.94;7316894;19;130102;-41
2022/07/17 05:52:50;;;;;;;23.70;2.00;;;;;;;22.56;60.68;100482.72;7316423;19;128941;-38
2022/07/17 05:55:15;;;;;;;19.02;1.60;;;;;;;;;;7314437;19;128994;-42
2022/07/17 05:57:41;;;;;;;16.95;1.55;;;;;;;22.63;60.75;100502.19;7316093;19;131088;-41
2022/07/17 06:00:07;;;;;;;21.90;1.75;;;;;;;22.64;60.32;100506.50;7315992;19;129848;-42
2022/07/17 06:02:32;;;;;;;13.07;1.25;;;;;;;22.54;60.48;100490.69;7315848;19;128994;-39
2022/07/17 06:04:58;;;;;;;11.98;1.17;;;;;;;22.63;60.18;100507.44;7315048;19;128971;-41
2022/07/17 06:07:23;;;;;;;15.98;1.33;;;;;;;22.66;60.53;100509.84;7316139;19;129667;-41
2022/07/17 06:09:48;;;;;;;17.48;1.50;;;;;;;22.62;60.18;100503.16;7316842;19;129708;-41
2022/07/17 06:12:14;;;;;;;9.02;1.00;;;;;;;22.64;60.92;100506.50;7316081;19;128683;-42
2022/07/17 06:14:39;;;;;;;19.45;1.58;;;;;;;;;;7314838;19;129589;-39
2022/07/17 06:17:04;;;;;;;37.38;3.50;;;;;;;22.57;60.00;100500.94;7312663;19;128948;-42
2022/07/17 06:19:30;;;;;;;18.35;1.60;;;;;;;22.63;60.32;100507.44;7315604;19;129360;-42
2022/07/17 06:21:55;;;;;;;3.55;0.50;;;;;;;22.62;60.24;100503.16;7316021;19;128735;-39
2022/07/17 06:24:20;;;;;;;17.48;1.60;;;;;;;22.62;60.93;100509.25;7315532;19;129491;-41
2022/07/17 06:26:46;;;;;;;17.77;1.60;;;;;;;22.63;60.16;100512.69;7315459;19;129090;-42
2022/07/17 06:29:12;;;;;;;18.40;1.63;;;;;;;22.61;60.67;100506.75;7315338;19;128923;-40
2022/07/17 06:31:37;;;;;;;15.43;1.38;;;;;;;22.62;60.33;100508.41;7316358;19;128962;-39
2022/07/17 06:34:03;;;;;;;19.90;1.75;;;;;;;22.62;60.85;100505.78;7315148;19;130229;-40
2022/07/17 06:36:28;;;;;;;17.25;1.55;;;;;;;22.55;61.00;100496.75;7314022;19;130110;-40
2022/07/17 06:38:53;;;;;;;16.45;1.42;;;;;;;22.65;60.28;100516.03;7314992;19;128877;-39
2022/07/17 06:41:19;;;;;;;16.13;1.40;;;;;;;22.63;60.90;100510.06;7313034;19;128818;-42
2022/07/17 06:43:44;;;;;;;18.17;1.47;;;;;;;22.63;60.49;100520.53;7315572;19;130239;-41
2022/07/17 06:46:10;;;;;;;21.00;1.77;;;;;;;22.62;60.40;100518.91;7310829;19;130320;-39
2022/07/17 06:48:35;;;;;;;3.50;0.60;;;;;;;22.62;60.54;100516.28;7314737;19;128860;-40
2022/07/17 06:51:00;;;;;;;18.20;1.63;;;;;;;22.54;60.77;100502.97;7315353;19;128737;-41
2022/07/17 06:53:26;;;;;;;16.85;1.42;;;;;;;22.62;60.44;100524.97;7314943;19;129122;-39
2022/07/17 06:55:51;;;;;;;22.85;2.08;;;;;;;22.61;60.61;100518.06;7312762;19;129201;-41
2022/07/17 06:58:17;;;;;;;18.60;1.52;;;;;;;22.61;60.52;100522.50;7313862;19;128978;-41
2022/07/17 07:00:42;;;;;;;15.75;1.40;;;;;;;22.61;60.59;100523.28;7313181;19;128664;-39
2022/07/17 07:03:07;;;;;;;17.48;1.50;;;;;;;22.61;61.09;100525.91;7314620;19;129674;-41
2022/07/17 07:05:34;;;;;;;15.43;1.35;;;;;;;22.61;60.42;100525.91;7312226;19;129698;-41
2022/07/17 07:07:59;;;;;;;15.88;1.35;;;;;;;22.61;60.87;100517.25;7314428;19;128785;-41
2022/07/17 07:10:24;;;;;;;10.75;1.05;;;;;;;22.54;60.86;100510.81;7313103;19;129439;-40
2022/07/17 07:12:50;;;;;;;18.83;1.55;;;;;;;22.62;60.49;100527.59;7314251;19;130539;-42
2022/07/17 07:15:15;;;;;;;17.17;1.40;;;;;;;22.61;60.51;100528.53;7312787;19;131703;-41
2022/07/17 07:17:41;;;;;;;11.40;1.05;;;;;;;22.62;60.90;100524.13;7313933;19;128901;-39
2022/07/17 07:20:07;;;;;;;20.88;1.90;;;;;;;22.57;60.40;100519.28;7313560;19;128891;-42
2022/07/17 07:22:33;;;;;;;15.27;1.25;;;;;;;22.62;60.93;100517.13;7314343;19;130265;-39
2022/07/17 07:24:59;;;;;;;17.03;1.47;;;;;;;22.61;60.21;100519.88;7312469;19;129546;-39
2022/07/17 07:27:24;;;;;;;18.27;1.60;;;;;;;22.63;60.73;100531.03;7314858;19;128876;-39
2022/07/17 07:29:50;;;;;;;20.17;1.80;;;;;;;22.62;60.44;100529.38;7320436;19;129426;-41
2022/07/17 07:32:16;;;;;;;8.98;0.93;;;;;;;22.54;60.79;100521.31;7320144;19;129448;-40
2022/07/17 07:34:41;;;;;;;17.77;1.63;;;;;;;22.62;60.82;100537.25;7319661;19;130290;-39
2022/07/17 07:37:07;;;;;;;31.65;2.83;;;;;;;22.61;60.26;100543.47;7319941;19;128773;-42
2022/07/17 07:39:32;;;;;;;14.05;1.20;;;;;;;22.61;60.80;100543.47;7320468;19;128861;-41
2022/07/17 07:41:58;;;;;;;17.25;1.65;;;;;;;22.61;60.79;100532.97;7319930;19;129215;-40
2022/07/17 07:44:23;;;;;;;16.00;1.30;;;;;;;22.62;60.71;100534.63;7319997;19;130190;-42
2022/07/17 07:46:49;;;;;;;16.60;1.57;;;;;;;22.61;60.58;100527.72;7320585;19;128747;-41
2022/07/17 07:49:15;;;;;;;20.98;1.88;;;;;;;22.62;61.24;100532.00;7319726;19;128855;-40
2022/07/17 07:51:41;;;;;;;18.30;1.63;;;;;;;22.60;60.72;100528.66;7320141;19;129543;-41
2022/07/17 07:54:06;;;;;;;14.23;1.57;;;;;;;22.60;60.36;100531.28;7320627;19;130319;-41
2022/07/17 07:56:32;;;;;;;16.63;1.33;;;;;;;22.60;60.83;100533.91;7320182;19;129162;-41
2022/07/17 07:58:57;;;;;;;20.17;1.85;;;;;;;22.61;60.77;100533.78;7319177;19;129158;-41
2022/07/17 08:01:23;;;;;;;16.02;1.27;;;;;;;22.58;60.74;100517.47;7318023;19;129571;-41
2022/07/17 08:03:48;;;;;;;20.23;1.75;;;;;;;22.62;60.45;100529.38;7319437;19;129082;-40
2022/07/17 08:06:14;;;;;;;17.85;1.52;;;;;;;22.61;60.62;100530.34;7320071;19;129192;-41
2022/07/17 08:08:40;;;;;;;5.28;0.57;;;;;;;22.60;61.00;100531.28;7319240;19;129149;-41
2022/07/17 08:11:05;;;;;;;17.52;1.63;;;;;;;22.60;60.04;100528.66;7319668;19;129156;-41
2022/07/17 08:13:31;;;;;;;16.93;1.40;;;;;;;22.60;60.08;100526.03;7319454;19;130804;-40
2022/07/17 08:15:58;;;;;;;16.07;1.40;;;;;;;22.59;60.64;100524.38;7317490;19;128886;-39
2022/07/17 08:18:25;;;;;;;25.23;2.30;;;;;;;22.59;60.17;100530.44;7318392;19;128664;-40
2022/07/17 08:20:51;;;;;;;17.73;1.85;;;;;;;22.60;60.26;100532.13;7317452;19;129780;-40
2022/07/17 08:23:16;;;;;;;17.90;1.53;;;;;;;22.60;60.32;100521.66;7317756;19;129274;-39
2022/07/17 08:25:43;;;;;;;19.25;1.63;;;;;;;22.60;60.18;100520.81;7317583;19;128959;-41
2022/07/17 08:28:09;;;;;;;;;;;;;;;22.63;63.28;100525.78;7319810;19;128916;-41
2022/07/17 08:30:34;;;;;;;16.42;1.40;;;;;;;22.61;60.27;100522.50;7318732;19;130127;-41
2022/07/17 08:33:02;;;;;;;16.55;1.55;;;;;;;22.60;60.75;100529.50;7318785;19;130307;-39
2022/07/17 08:35:27;;;;;;;38.45;3.35;;;;;;;22.61;60.77;100527.72;7315995;19;128788;-41
2022/07/17 08:37:53;;;;;;;15.45;1.27;;;;;;;22.59;60.56;100522.59;7318705;19;129115;-42
2022/07/17 08:40:25;;;;;;;3.78;0.57;;;;;;;22.61;61.68;100530.34;7316266;19;129133;-41
2022/07/17 08:42:51;;;;;;;17.77;1.67;;;;;;;22.59;60.64;100535.69;7318574;19;129534;-41
2022/07/17 08:45:17;;;;;;;10.23;1.08;;;;;;;22.60;60.38;100526.03;7317038;19;128774;-41
2022/07/17 08:47:43;;;;;;;14.77;1.30;;;;;;;22.60;60.36;100531.28;7315575;19;130244;-41
2022/07/17 08:50:10;;;;;;;13.95;1.23;;;;;;;22.61;60.78;100527.72;7317620;19;129693;-40
2022/07/17 08:52:41;;;;;;;16.02;1.27;;;;;;;22.60;60.72;100536.53;7318263;19;131084;-39
2022/07/17 08:55:13;;;;;;;15.70;1.48;;;;;;;22.59;62.05;100535.69;7317140;19;128925;-41
2022/07/17 08:57:43;;;;;;;6.10;0.80;;;;;;;22.57;61.72;100535.00;7317702;19;129223;-40
2022/07/17 09:00:12;;;;;;;15.35;1.35;;;;;;;22.57;60.72;100527.13;7316460;19;130933;-41
2022/07/17 09:02:38;;;;;;;14.00;1.38;;;;;;;22.59;60.79;100521.78;7318155;19;131056;-40
2022/07/17 09:05:04;;;;;;;16.23;1.40;;;;;;;22.59;60.77;100524.38;7316711;19;129197;-39
2022/07/17 09:07:30;;;;;;;32.65;2.72;;;;;;;22.59;61.03;100527.00;7318664;19;129274;-41
2022/07/17 09:09:56;;;;;;;15.32;1.40;;;;;;;22.52;60.68;100510.06;7316960;19;130618;-39
2022/07/17 09:12:29;;;;;;;22.20;1.98;;;;;;;22.58;62.32;100520.94;7317116;19;129803;-39
2022/07/17 09:14:55;;;;;;;13.88;1.38;;;;;;;22.58;60.64;100522.72;7316792;19;129139;-41
2022/07/17 09:17:22;;;;;;;37.55;3.35;;;;;;;22.58;60.81;100518.31;7317184;19;128935;-41
2022/07/17 09:19:48;;;;;;;18.98;1.67;;;;;;;22.58;60.91;100517.47;7316751;19;130785;-40
2022/07/17 09:22:20;;;;;;;17.38;1.45;;;;;;;22.57;62.38;100527.13;7317596;19;129634;-38
2022/07/17 09:24:51;;;;;;;16.05;1.42;;;;;;;22.56;61.58;100522.84;7316614;19;128960;-39
2022/07/17 09:27:37;;;;;;;21.95;1.85;;;;;;;22.57;63.09;100529.75;7317426;19;128874;-39
2022/07/17 09:30:05;;;;;;;21.83;1.77;;;;;;;22.57;61.31;100526.28;7316665;19;130327;-39
2022/07/17 09:32:35;;;;;;;15.82;1.42;;;;;;;22.58;61.23;100522.72;7316987;19;129824;-38
2022/07/17 09:35:03;;;;;;;16.83;1.35;;;;;;;22.57;60.73;100526.28;7315813;19;129266;-38
2022/07/17 09:37:30;;;;;;;38.47;3.50;;;;;;;22.57;61.14;100521.06;7316482;19;129137;-38
2022/07/17 09:39:57;;;;;;;18.52;1.58;;;;;;;22.52;60.94;100512.69;7316757;19;130278;-38
2022/07/17 09:42:31;;;;;;;18.92;1.48;;;;;;;22.58;61.55;100520.09;7317211;19;129380;-38
2022/07/17 09:45:04;;;;;;;9.52;0.98;;;;;;;22.58;60.90;100527.94;7315769;19;129125;-38
2022/07/17 09:47:32;;;;;;;25.02;2.05;;;;;;;22.58;60.90;100533.19;7317465;19;129379;-38
2022/07/17 09:49:59;;;;;;;19.20;1.83;;;;;;;22.54;60.82;100514.28;7316537;19;129734;-38
2022/07/17 09:52:29;;;;;;;14.85;1.30;;;;;;;22.56;61.24;100522.03;7317222;19;129158;-38
2022/07/17 09:54:56;;;;;;;17.23;1.40;;;;;;;22.56;60.46;100519.41;7316038;19;129193;-38
2022/07/17 09:57:27;;;;;;;31.85;3.00;;;;;;;22.56;61.98;100519.41;7316088;19;129137;-38
2022/07/17 09:59:55;;;;;;;20.67;1.80;;;;;;;22.55;61.26;100523.81;7316141;19;129193;-38
2022/07/17 10:02:21;;;;;;;14.00;1.33;;;;;;;22.56;60.46;100522.03;7316297;19;129848;-38
2022/07/17 10:04:48;;;;;;;17.55;1.50;;;;;;;22.56;60.48;100537.75;7315141;19;128754;-38
2022/07/17 10:07:13;;;;;;;15.75;1.40;;;;;;;22.57;60.54;100531.53;7317007;19;129438;-38
2022/07/17 10:09:40;;;;;;;21.08;1.88;;;;;;;22.57;60.53;100536.78;7315535;19;130022;-37
2022/07/17 10:12:07;;;;;;;17.27;1.40;;;;;;;22.57;60.75;100521.06;7316671;19;130375;-38
2022/07/17 10:14:34;;;;;;;8.50;0.90;;;;;;;22.58;60.98;100514.84;7315320;19;128824;-38
2022/07/17 10:17:09;;;;;;;8.82;0.98;;;;;;;22.56;62.50;100509.72;7316131;19;128771;-38
2022/07/17 10:19:46;;;;;;;16.60;1.33;;;;;;;22.55;62.37;100502.84;7315513;19;129673;-38
2022/07/17 10:22:11;;;;;;;14.90;1.33;;;;;;;22.56;60.98;100503.69;7313429;19;129248;-37
2022/07/17 10:24:55;;;;;;;14.52;1.20;;;;;;;22.54;62.36;100495.94;7314605;19;128879;-38
2022/07/17 10:27:28;;;;;;;22.23;2.08;;;;;;;22.54;62.09;100498.56;7315382;19;128919;-38
2022/07/17 10:30:04;;;;;;;15.25;1.38;;;;;;;22.54;62.77;100495.09;7315655;19;131358;-38
2022/07/17 10:32:30;;;;;;;11.02;1.00;;;;;;;22.54;61.43;100501.19;7315511;19;131391;-38
2022/07/17 10:35:01;;;;;;;15.53;1.40;;;;;;;22.54;62.02;100500.34;7314244;19;128803;-38
2022/07/17 10:37:36;;;;;;;34.05;2.95;;;;;;;22.56;60.59;100503.69;7315408;19;129431;-38
2022/07/17 10:40:21;;;;;;;17.70;1.60;;;;;;;22.56;62.83;100508.91;7314818;19;130995;-38
2022/07/17 10:42:50;;;;;;;18.30;1.48;;;;;;;22.53;61.04;100499.50;7314899;19;129163;-38
2022/07/17 10:45:16;;;;;;;18.23;1.50;;;;;;;22.54;60.78;100497.72;7314143;19;128831;-41
2022/07/17 10:47:51;;;;;;;11.32;1.00;;;;;;;22.55;62.60;100509.84;7315044;19;128699;-42
2022/07/17 10:50:19;;;;;;;21.20;1.83;;;;;;;22.54;61.40;100508.19;7314788;19;130383;-39
2022/07/17 10:52:44;;;;;;;18.90;1.55;;;;;;;22.53;60.83;100498.66;7315641;19;130485;-41
2022/07/17 10:55:21;;;;;;;15.15;1.30;;;;;;;22.53;62.82;100501.28;7313402;19;129291;-41
2022/07/17 10:57:48;;;;;;;5.13;0.75;;;;;;;22.50;61.11;100504.13;7314459;19;128990;-40
2022/07/17 11:00:15;;;;;;;16.77;1.48;;;;;;;22.54;61.02;100510.81;7314602;19;131128;-40
2022/07/17 11:02:40;;;;;;;;;;;;;;;22.56;63.41;100514.16;7313472;19;129459;-39
2022/07/17 11:05:07;;;;;;;16.02;1.45;;;;;;;22.54;60.81;100505.59;7313548;19;129406;-41
2022/07/17 11:07:32;;;;;;;37.97;3.65;;;;;;;22.53;61.37;100509.13;7314449;19;128901;-39
2022/07/17 11:09:58;;;;;;;15.68;1.25;;;;;;;22.52;61.04;100500.44;7314981;19;130207;-40
2022/07/17 11:12:32;;;;;;;11.13;1.05;;;;;;;22.53;62.46;100498.66;7313982;19;129650;-39